createdAt,value
2022-09-15T04:00:16.871Z,99450.31
2022-09-15T04:03:19.488Z,99450.31
2022-09-15T04:06:22.770Z,99450.44
2022-09-15T04:09:25.647Z,99458.59
2022-09-15T04:12:29.553Z,99455.53
2022-09-15T04:15:31.911Z,99471.09
2022-09-15T04:18:35.335Z,99459.91
2022-09-15T04:21:37.607Z,99447.13
2022-09-15T04:24:39.621Z,99460.75
2022-09-15T04:27:41.920Z,99457.25
2022-09-15T04:30:43.933Z,99454.50
2022-09-15T04:33:47.089Z,99460.00
2022-09-15T04:36:49.706Z,99476.72
2022-09-15T04:39:52.209Z,99480.16
2022-09-15T04:42:54.297Z,99482.09
2022-09-15T04:45:56.590Z,99486.75
2022-09-15T04:48:58.739Z,99491.03
2022-09-15T04:52:01.141Z,99475.44
2022-09-15T04:55:03.305Z,99472.78
2022-09-15T04:58:05.600Z,99467.03
2022-09-15T05:01:13.957Z,99465.16
2022-09-15T05:04:16.427Z,99465.63
2022-09-15T05:07:19.633Z,99459.47
2022-09-15T05:10:22.168Z,99466.94
2022-09-15T05:13:24.205Z,99480.56
2022-09-15T05:16:29.086Z,99482.87
2022-09-15T05:19:31.145Z,99488.81
2022-09-15T05:22:33.425Z,99492.38
2022-09-15T05:25:35.448Z,99502.47
2022-09-15T05:28:37.928Z,99512.97
2022-09-15T05:31:40.017Z,99514.97
2022-09-15T05:34:42.361Z,99507.97
2022-09-15T05:37:44.414Z,99532.50
2022-09-15T05:40:46.822Z,99529.34
2022-09-15T05:43:50.708Z,99523.91
2022-09-15T05:46:53.071Z,99523.56
2022-09-15T05:49:55.552Z,99517.69
2022-09-15T05:52:58.319Z,99532.03
2022-09-15T05:56:10.614Z,99522.41
2022-09-15T05:59:13.094Z,99514.66
2022-09-15T06:02:15.253Z,99519.78
2022-09-15T06:05:17.609Z,99521.84
2022-09-15T06:08:19.926Z,99524.94
2022-09-15T06:11:28.704Z,99524.09
2022-09-15T06:14:30.740Z,99531.09
2022-09-15T06:17:33.076Z,99526.84
2022-09-15T06:20:35.102Z,99527.34
2022-09-15T06:23:38.248Z,99530.50
2022-09-15T06:26:40.477Z,99528.97
2022-09-15T06:29:42.788Z,99527.06
2022-09-15T06:32:48.112Z,99540.38
2022-09-15T06:35:50.596Z,99550.13
2022-09-15T06:38:53.077Z,99548.59
2022-09-15T06:42:02.727Z,99544.34
2022-09-15T06:45:06.414Z,99553.31
2022-09-15T06:48:23.926Z,99552.19
2022-09-15T06:51:31.302Z,99556.12
2022-09-15T06:54:33.873Z,99554.19
2022-09-15T06:57:36.335Z,99556.12
2022-09-15T07:00:38.681Z,99552.25
2022-09-15T07:03:43.537Z,99556.53
2022-09-15T07:06:46.067Z,99555.78
2022-09-15T07:09:49.132Z,99561.66
2022-09-15T07:12:51.635Z,99560.50
2022-09-15T07:15:55.951Z,99573.38
2022-09-15T07:19:01.150Z,99571.88
2022-09-15T07:22:03.173Z,99581.25
2022-09-15T07:25:05.963Z,99584.06
2022-09-15T07:28:07.962Z,99583.38
2022-09-15T07:31:13.286Z,99588.09
2022-09-15T07:34:15.418Z,99583.06
2022-09-15T07:37:18.287Z,99590.97
2022-09-15T07:40:21.954Z,99583.31
2022-09-15T07:43:24.289Z,99592.00
2022-09-15T07:46:29.402Z,99590.41
2022-09-15T07:49:31.693Z,99594.75
2022-09-15T07:52:33.827Z,99587.75
2022-09-15T07:55:36.104Z,99588.97
2022-09-15T07:58:38.326Z,99587.06
2022-09-15T08:01:40.640Z,99583.56
2022-09-15T08:04:43.409Z,99592.22
2022-09-15T08:07:45.472Z,99597.69
2022-09-15T08:10:47.750Z,99586.00
2022-09-15T08:13:51.077Z,99594.63
2022-09-15T08:16:53.392Z,99599.34
2022-09-15T08:19:55.469Z,99597.44
2022-09-15T08:22:57.838Z,99602.53
2022-09-15T08:26:00.299Z,99602.28
2022-09-15T08:29:02.588Z,99596.50
2022-09-15T08:32:05.187Z,99600.09
2022-09-15T08:35:08.638Z,99593.47
2022-09-15T08:38:11.071Z,99582.22
2022-09-15T08:41:27.454Z,99580.31
2022-09-15T08:44:38.251Z,99573.38
2022-09-15T08:47:44.968Z,99572.31
2022-09-15T08:50:52.314Z,99573.50
2022-09-15T08:54:02.138Z,99567.66
2022-09-15T08:57:06.221Z,99564.53
2022-09-15T09:00:15.608Z,99567.25
2022-09-15T09:03:17.677Z,99565.34
2022-09-15T09:06:41.177Z,99554.88
2022-09-15T09:10:24.942Z,99541.59
2022-09-15T09:13:49.142Z,99538.53
2022-09-15T09:17:10.633Z,99545.22
2022-09-15T09:20:32.208Z,99531.59
2022-09-15T09:23:49.706Z,99537.06
2022-09-15T09:26:55.315Z,99520.34
2022-09-15T09:30:07.466Z,99511.38
2022-09-15T09:33:38.697Z,99515.66
2022-09-15T09:36:40.842Z,99523.13
2022-09-15T09:39:43.122Z,99527.81
2022-09-15T09:42:45.425Z,99522.34
2022-09-15T09:45:47.761Z,99523.19
2022-09-15T09:48:58.690Z,99523.94
2022-09-15T09:52:03.536Z,99514.97
2022-09-15T09:55:25.311Z,99502.84
2022-09-15T09:58:27.607Z,99506.34
2022-09-15T10:01:30.375Z,99499.69
2022-09-15T10:04:32.756Z,99488.72
2022-09-15T10:07:41.118Z,99486.41
2022-09-15T10:10:52.638Z,99475.81
2022-09-15T10:13:56.122Z,99463.66
2022-09-15T10:17:20.301Z,99457.44
2022-09-15T10:20:28.193Z,99456.66
2022-09-15T10:23:32.724Z,99448.81
2022-09-15T10:26:34.830Z,99433.56
2022-09-15T10:29:39.277Z,99430.06
2022-09-15T10:32:42.698Z,99425.34
2022-09-15T10:35:45.425Z,99421.41
2022-09-15T10:39:24.969Z,99414.34
2022-09-15T10:42:50.149Z,99416.63
2022-09-15T10:46:04.851Z,99424.00
2022-09-15T10:49:16.006Z,99419.63
2022-09-15T10:52:58.410Z,99416.50
2022-09-15T10:56:09.614Z,99420.81
2022-09-15T10:59:30.379Z,99422.81
2022-09-15T11:02:57.087Z,99434.56
2022-09-15T11:06:27.021Z,99432.22
2022-09-15T11:09:48.618Z,99443.66
2022-09-15T11:13:15.291Z,99427.19
2022-09-15T11:16:49.017Z,99433.06
2022-09-15T11:20:25.207Z,99433.09
2022-09-15T11:23:40.466Z,99424.88
2022-09-15T11:26:52.112Z,99430.00
2022-09-15T11:30:01.148Z,99428.06
2022-09-15T11:33:23.696Z,99421.44
2022-09-15T11:36:37.082Z,99421.81
2022-09-15T11:40:09.121Z,99417.13
2022-09-15T11:43:37.459Z,99403.44
2022-09-15T11:47:02.629Z,99398.00
2022-09-15T11:50:11.033Z,99379.62
2022-09-15T11:53:25.943Z,99368.28
2022-09-15T11:56:45.609Z,99358.13
2022-09-15T11:59:54.709Z,99347.16
2022-09-15T12:03:32.520Z,99342.03
2022-09-15T12:06:51.623Z,99358.84
2022-09-15T12:09:54.139Z,99363.13
2022-09-15T12:13:00.067Z,99369.81
2022-09-15T12:16:03.962Z,99374.53
2022-09-15T12:19:18.516Z,99375.34
2022-09-15T12:22:35.009Z,99376.91
2022-09-15T12:26:14.295Z,99365.19
2022-09-15T12:29:22.345Z,99346.03
2022-09-15T12:32:33.402Z,99343.69
2022-09-15T12:35:35.710Z,99331.16
2022-09-15T12:38:38.010Z,99334.69
2022-09-15T12:41:47.620Z,99326.47
2022-09-15T12:45:04.133Z,99330.37
2022-09-15T12:48:19.924Z,99331.94
2022-09-15T12:51:25.228Z,99301.44
2022-09-15T12:54:31.374Z,99285.78
2022-09-15T12:57:36.146Z,99290.09
2022-09-15T13:00:49.981Z,99310.06
2022-09-15T13:04:05.594Z,99312.03
2022-09-15T13:07:17.158Z,99392.59
2022-09-15T13:10:27.843Z,99437.37
2022-09-15T13:14:08.029Z,99380.66
2022-09-15T13:17:18.614Z,99359.50
2022-09-15T13:20:31.774Z,99367.66
2022-09-15T13:23:39.810Z,99379.56
2022-09-15T13:26:44.638Z,99372.66
2022-09-15T13:29:59.929Z,99359.59
2022-09-15T13:33:23.983Z,99370.06
2022-09-15T13:40:37.973Z,99376.28
2022-09-15T13:43:52.189Z,99379.91
2022-09-15T13:47:09.460Z,99373.44
2022-09-15T13:50:17.274Z,99367.63
2022-09-15T13:53:32.214Z,99363.53
2022-09-15T13:56:41.205Z,99371.69
2022-09-15T13:59:43.268Z,99359.59
2022-09-15T14:05:56.637Z,99359.78
2022-09-15T14:09:03.927Z,99362.16
2022-09-15T14:12:12.056Z,99359.03
2022-09-15T14:15:22.709Z,99354.38
2022-09-15T14:18:25.401Z,99349.81
2022-09-15T14:21:31.909Z,99346.72
2022-09-15T14:24:40.043Z,99348.31
2022-09-15T14:27:45.511Z,99336.28
2022-09-15T14:30:48.510Z,99353.81
2022-09-15T14:33:50.574Z,99363.50
2022-09-15T14:37:05.644Z,99377.53
2022-09-15T14:40:23.431Z,99383.19
2022-09-15T14:43:28.180Z,99390.72
2022-09-15T14:46:38.180Z,99387.66
2022-09-15T14:49:40.479Z,99369.69
2022-09-15T14:53:07.537Z,99368.28
2022-09-15T14:56:17.029Z,99405.00
2022-09-15T14:59:41.658Z,99432.56
2022-09-15T15:03:17.555Z,99430.41
2022-09-15T15:06:29.829Z,99406.41
2022-09-15T15:09:51.194Z,99396.75
2022-09-15T15:12:58.695Z,99408.44
2022-09-15T15:16:01.202Z,99434.78
2022-09-15T15:19:03.522Z,99443.09
2022-09-15T15:22:11.989Z,99430.66
2022-09-15T15:25:22.059Z,99394.75
2022-09-15T15:28:38.548Z,99387.03
2022-09-15T15:31:40.653Z,99389.69
2022-09-15T15:34:50.546Z,99385.34
2022-09-15T15:38:11.068Z,99409.16
